Résultats

COURIR POUR LA MEMOIRE
5 km de la mémoire. Édition 2017.

5 Km
01/10/2017 à 09:00:00 - MARSEILLE (13)
157 arrivant(e)s.





Place▲ Temps Dossard Nom Prenom Categ #Categ Sexe #Sexe Club Vit Moy Diplôme Partager
1 00:15:11 1368 EL-YOUSFI DRISS SEM 1 M 1 UAVH 19.76
2 00:16:38 1286 LEKBAD-HAMMOU LAHOUARI SEM 2 M 2 TRAMINOT AND CO. 18.04
3 00:16:49 1271 ROCHEBLAVE ARNAUD JUM 1 M 3 AIX ATHLE#JACQUIE ET MICHEL 17.84
4 00:17:09 1234 AUGIER SEBASTIEN SEM 3 M 4 OMNISPORT HYEROIS ATLETISME 17.49
5 00:17:24 1215 TERAGNOLI BRUNO M1M 1 M 5 SCO SAINTE MARGUERITE 17.24
6 00:17:31 1243 GUSTAVE-GEOFFROY PATRICE M1M 2 M 6 TROYES OMNISPORTS 17.13
7 00:17:41 1292 HAMHAMI BELKHACEM SEM 4 M 7 CLUB OLYMPIQUE CABRIES 16.97
8 00:18:20 1359 SARRAZIN VALENTIN SEM 5 M 8 GZA 16.36
9 00:18:23 1233 ZOELLIN-JILLIOT ARIELLE SEF 1 F 1 LYON ATHLETISME 16.32
10 00:18:27 1366 TAOUFIKALLAH FAHD SEM 6 M 9 PROLOGIA 16.26
11 00:18:28 1313 ESTEBE LAURENT SEM 7 M 10 MASSILIA MARATHON 16.25
12 00:18:45 1291 BELMADI SID'AHMED M3M 1 M 11 SCO SAINTE MARGUERITE 16.00
13 00:18:59 1356 COCCI JEAN-MARC M1M 3 M 12 ACP SEPTEMES 15.80
14 00:19:01 1253 POUPINE JEAN-MARC M2M 1 M 13 SCO SAINTE MARGUERITE 15.78
15 00:19:08 1330 PUGLISI PATRICK M1M 4 M 14 15.68
16 00:19:23 1363 COGAN JULIETTE SEF 2 F 2 15.48
17 00:19:58 1357 BONNEFON ERIC M1M 5 M 15 BSSA 15.03
18 00:20:07 1360 LILLO ERIC M2M 2 M 16 14.91
19 00:20:12 1365 CHARPENTIER GERARD M2M 3 M 17 OCC CABRIES CALAS 14.85
20 00:20:46 1308 MORUCCI LAURENT M1M 6 M 18 14.45
21 00:20:51 1370 INCONNU SEM 8 M 19 14.39
22 00:20:51 1211 LEBELLEGARD THIBAUD SEM 9 M 20 14.39
23 00:21:02 1346 MEBIOUD SALIH ESM 1 M 21 HBPC 14.26
24 00:21:31 1342 GHORZI KARIM SEM 10 M 22 13.94
25 00:21:36 1242 CHORFIA ZINA M1F 1 F 3 CEF MARATHONIEN 13.89
26 00:21:36 1314 RENAULT ROMAN MIM 1 M 23 13.89
27 00:21:51 1264 MOREAU MICHEL M3M 2 M 24 CSMB MARSEILLE 13.73
28 00:21:57 1304 N:Anonyme 1304 P:Anonyme 1304 SEM 11 M 25 13.67
29 00:21:59 1267 TOPALIAN BENOIT JUM 2 M 26 CPLM/ENDURANCE 13 MARSEILLE 13.65
30 00:22:06 1266 TOPALIAN THIERRY M2M 4 M 27 CPLM/ENDURANCE 13 MARSEILLE 13.57
31 00:22:14 1245 MASCRET MORGANE SEF 3 F 4 MARSEILLE TRAIL CLUB 13.49
32 00:22:39 1362 ROMERO LIONEL M1M 7 M 28 SLC MARTIGUES 13.25
33 00:22:47 1327 CHAPPOT JEAN-MARC M2M 5 M 29 13.17
34 00:23:04 1341 CAPELLE GREGORY M1M 8 M 30 HBPC 13.01
35 00:23:04 1272 SENG ALINE SEF 4 F 5 13.01
36 00:23:07 450 SPADOLA RENE M2M 6 M 31 12.98
37 00:23:27 1348 CICCO ANTHONY ESM 2 M 32 HBPC 12.79
38 00:23:32 1306 LAMACQ JOELLE M3F 1 F 6 CSMB MARSEILLE 12.75
39 00:23:43 1307 MORIN DOMINIQUE M3F 2 F 7 MARATHONIEN CEF 12.65
40 00:24:20 1347 BRAMARDI DAVY SEM 12 M 33 HBPC 12.33
41 00:24:26 1344 SOLAKIAN JEAN-ERIC M2M 7 M 34 12.28
42 00:24:36 1337 GOMAA REHAB SEF 5 F 8 12.20
43 00:24:36 1338 GOUBELLE AURELIE SEF 6 F 9 HBPC 12.20
44 00:24:36 1257 BLANC MICHEL M2M 8 M 35 12.20
45 00:24:40 1274 GARDIOL PIERRE M2M 9 M 36 CSPCG 13 12.16
46 00:24:44 1301 LOPES MARIA M2F 1 F 10 LIBERTY AQUA& FITNESS 12.13
47 00:24:54 1240 BOUILLE TOM MIM 2 M 37 12.05
48 00:24:55 1285 ROCCA PASCAL M1M 9 M 38 TEAM SOPHIE 12.04
49 00:25:18 1230 BERCHEL LUCAS JUM 3 M 39 11.86
50 00:25:19 1318 MARTY CYRIL M1M 10 M 40 11.85
51 00:25:24 323 ROBET ANAELLE JUF 1 F 11 11.81
52 00:25:27 1332 CALTAGIROME SERGE M2M 10 M 41 11.79
53 00:25:27 1268 ANDREIS CHRISTIAN M3M 3 M 42 ENDURANCE13 MARSEILLE 11.79
54 00:25:29 1299 GIRAUD GEREMY SEM 13 M 43 MARSEILLE RUN SEA 11.77
55 00:25:30 1293 BLASQUIZ CYNTHIA SEF 7 F 12 AUCUN 11.76
56 00:25:31 1256 GERAULT MELANIE SEF 8 F 13 11.76
57 00:25:39 1281 GRANDEMANGE LAURENT M1M 11 M 44 11.70
58 00:26:34 1259 QUATTROCCHI JEAN-PHILIPPE M1M 12 M 45 MARSEILLE TRAIL CLUB 11.29
59 00:26:36 1219 PENEL ROMAIN SEM 14 M 46 11.28
60 00:26:38 1223 PIBAROT VINCENT SEM 15 M 47 11.26
61 00:26:44 1369 COHEN NATHAN SEM 16 M 48 11.22
62 00:27:22 1320 MAGLIOZZI PHILIPPE M2M 11 M 49 SC PA1 10.96
63 00:27:27 1232 BOZIAN CHRISTOPHE M1M 13 M 50 10.93
64 00:27:28 1367 TROTENTLIN RENE M1M 14 M 51 SC PAM FSGT 10.92
65 00:27:35 1296 SANTELLA JEAN M3M 4 M 52 CSPCG 13 10.88
66 00:27:39 1326 KAFTANDJIAN JULIEN SEM 17 M 53 ENDURANCE 13 MARSEILLE 10.85
67 00:27:41 1333 OLIVE MARIE SEF 9 F 14 HBPC 10.84
68 00:27:44 1273 CARRENO ETIENNE SEM 18 M 54 10.82
69 00:27:47 1309 BOUCETTA JACKIE M3M 5 M 55 10.80
70 00:27:55 1355 DURAND CLAIRE SEF 10 F 15 UAVH AUBAGNE 10.75
71 00:27:57 1280 GOUTTEFARDE ELODIE SEF 11 F 16 BANQUE POPULAIRE 10.73
72 00:28:05 1325 KAFTANDJIAN SOPHIE M2F 2 F 17 TRAIL CLUB DE PROVENCE 10.68
73 00:28:10 1345 SANTANDREU ANTHONY JUM 4 M 56 HBPC 10.65
74 00:28:12 1340 KAZGANDJIAN MARIE SEF 12 F 18 10.64
75 00:28:14 1328 RIVIER MARIANNE ESF 1 F 19 EMD 10.63
76 00:28:14 1287 LEON FREDERIQUE M1F 2 F 20 10.63
77 00:28:15 1329 RENARD AUDREY ESF 2 F 21 EMD 10.62
78 00:28:17 1283 LAVANANT JUSTINE SEF 13 F 22 10.61
79 00:28:17 399 ARZOUMIAN CHRISTOPHE M1M 15 M 57 10.61
80 00:28:29 1361 MIMASSIAN GREGOIRE M2M 12 M 58 10.53
81 00:28:34 1262 ZAKIAN SARO SEM 19 M 59 10.50
82 00:28:37 1317 BIRGIN EDOUARD-ARTIN M2M 13 M 60 10.48
83 00:28:43 1275 HORAN-AMBEL CLAUDIA M1F 3 F 23 10.45
84 00:28:48 1352 MAGIN MARC M2M 14 M 61 SEMELLE USEES ROGNAC 10.42
85 00:28:52 1336 DA-SILVA ANASTASIA SEF 14 F 24 HBPC 10.39
86 00:28:52 1335 PRIOU SAMANTHA SEF 15 F 25 HBPC 10.39
87 00:29:12 1239 CHARTRON STEPHANIE M1F 4 F 26 10.27
88 00:29:12 1238 GOTSIRIDZE LAURENCE M1F 5 F 27 10.27
89 00:29:12 1241 BURIOLI STEPHANIE M1F 6 F 28 10.27
90 00:29:15 1228 TCHOUKOURIAN MARTIAL JUM 5 M 62 10.26
91 00:29:17 1282 VINCENT JOHANNA CAF 1 F 29 KMS 10.24
92 00:29:24 1231 BERCHEL THIERRY M1M 16 M 63 10.20
93 00:29:38 482 BIANCARELLI VERONIQUE M1F 7 F 30 10.12
94 00:29:45 1289 JUSTIN YVES M2M 15 M 64 10.08
95 00:29:46 1321 KAFTANDJIAN PIERRE ESM 3 M 65 ENDURANCE 13 MARSEILLE 10.08
96 00:29:47 1364 ASDOURIAN MARION SEF 16 F 31 10.07
97 00:29:51 1236 RUIS AYMELINE SEF 17 F 32 10.05
98 00:29:52 1290 LYAN EMMANUELLE SEF 18 F 33 KEEP COOL 10.04
99 00:30:17 1216 DE-GENNARO JOCELYNE M2F 3 F 34 ECSM 9.91
100 00:30:18 1349 N:Anonyme 1349 P:Anonyme 1349 ESM 4 M 66 HBPC 9.90